sensor_id;sensor_type;location;lat;lon;timestamp;P1;durP1;ratioP1;P2;durP2;ratioP2
12635;SDS011;6383;50.830;7.210;2022-08-19T00:01:58;20.13;;;18.33;;
12635;SDS011;6383;50.830;7.210;2022-08-19T00:04:27;19.10;;;17.52;;
12635;SDS011;6383;50.830;7.210;2022-08-19T00:06:59;18.92;;;17.33;;
12635;SDS011;6383;50.830;7.210;2022-08-19T00:09:30;19.08;;;17.35;;
12635;SDS011;6383;50.830;7.210;2022-08-19T00:11:59;20.08;;;18.17;;
12635;SDS011;6383;50.830;7.210;2022-08-19T00:14:29;19.30;;;17.60;;
12635;SDS011;6383;50.830;7.210;2022-08-19T00:16:59;20.25;;;17.00;;
12635;SDS011;6383;50.830;7.210;2022-08-19T00:19:29;18.52;;;16.95;;
12635;SDS011;6383;50.830;7.210;2022-08-19T00:21:59;18.98;;;17.30;;
12635;SDS011;6383;50.830;7.210;2022-08-19T00:24:30;19.95;;;18.17;;
12635;SDS011;6383;50.830;7.210;2022-08-19T00:26:59;19.23;;;17.63;;
12635;SDS011;6383;50.830;7.210;2022-08-19T00:29:29;17.77;;;16.25;;
12635;SDS011;6383;50.830;7.210;2022-08-19T00:31:58;17.52;;;16.08;;
12635;SDS011;6383;50.830;7.210;2022-08-19T00:34:27;18.17;;;16.63;;
12635;SDS011;6383;50.830;7.210;2022-08-19T00:36:56;18.42;;;17.10;;
12635;SDS011;6383;50.830;7.210;2022-08-19T00:39:27;18.02;;;16.52;;
12635;SDS011;6383;50.830;7.210;2022-08-19T00:41:57;18.30;;;16.63;;
12635;SDS011;6383;50.830;7.210;2022-08-19T00:44:27;18.45;;;16.95;;
12635;SDS011;6383;50.830;7.210;2022-08-19T00:46:58;19.00;;;17.40;;
12635;SDS011;6383;50.830;7.210;2022-08-19T00:49:28;18.40;;;16.88;;
12635;SDS011;6383;50.830;7.210;2022-08-19T00:52:00;18.38;;;16.80;;
12635;SDS011;6383;50.830;7.210;2022-08-19T00:54:31;17.88;;;16.33;;
12635;SDS011;6383;50.830;7.210;2022-08-19T00:57:01;19.23;;;17.63;;
12635;SDS011;6383;50.830;7.210;2022-08-19T00:59:33;18.83;;;17.23;;
12635;SDS011;6383;50.830;7.210;2022-08-19T01:02:05;17.67;;;16.20;;
12635;SDS011;6383;50.830;7.210;2022-08-19T01:04:34;19.27;;;17.42;;
12635;SDS011;6383;50.830;7.210;2022-08-19T01:07:03;17.05;;;15.75;;
12635;SDS011;6383;50.830;7.210;2022-08-19T01:09:33;20.17;;;18.15;;
12635;SDS011;6383;50.830;7.210;2022-08-19T01:12:02;19.63;;;17.73;;
12635;SDS011;6383;50.830;7.210;2022-08-19T01:14:31;18.85;;;17.20;;
12635;SDS011;6383;50.830;7.210;2022-08-19T01:16:59;18.40;;;16.90;;
12635;SDS011;6383;50.830;7.210;2022-08-19T01:19:30;19.40;;;17.63;;
12635;SDS011;6383;50.830;7.210;2022-08-19T01:22:02;18.83;;;17.20;;
12635;SDS011;6383;50.830;7.210;2022-08-19T01:27:06;19.65;;;17.80;;
12635;SDS011;6383;50.830;7.210;2022-08-19T01:29:37;18.92;;;17.38;;
12635;SDS011;6383;50.830;7.210;2022-08-19T01:32:09;19.67;;;18.10;;
12635;SDS011;6383;50.830;7.210;2022-08-19T01:34:40;20.20;;;18.52;;
12635;SDS011;6383;50.830;7.210;2022-08-19T01:37:11;20.85;;;18.85;;
12635;SDS011;6383;50.830;7.210;2022-08-19T01:39:41;20.83;;;19.00;;
12635;SDS011;6383;50.830;7.210;2022-08-19T01:42:10;20.65;;;19.05;;
12635;SDS011;6383;50.830;7.210;2022-08-19T01:44:40;20.75;;;18.95;;
12635;SDS011;6383;50.830;7.210;2022-08-19T01:47:09;21.75;;;19.98;;
12635;SDS011;6383;50.830;7.210;2022-08-19T01:49:38;19.95;;;18.35;;
12635;SDS011;6383;50.830;7.210;2022-08-19T01:52:07;18.83;;;17.13;;
12635;SDS011;6383;50.830;7.210;2022-08-19T01:54:36;18.92;;;17.20;;
12635;SDS011;6383;50.830;7.210;2022-08-19T01:57:08;17.98;;;16.55;;
12635;SDS011;6383;50.830;7.210;2022-08-19T01:59:41;19.65;;;17.80;;
12635;SDS011;6383;50.830;7.210;2022-08-19T02:02:13;19.70;;;18.17;;
12635;SDS011;6383;50.830;7.210;2022-08-19T02:04:42;18.75;;;17.27;;
12635;SDS011;6383;50.830;7.210;2022-08-19T02:07:11;18.02;;;16.63;;
12635;SDS011;6383;50.830;7.210;2022-08-19T02:09:40;19.83;;;18.08;;
12635;SDS011;6383;50.830;7.210;2022-08-19T02:12:11;20.10;;;18.40;;
12635;SDS011;6383;50.830;7.210;2022-08-19T02:14:40;20.25;;;18.33;;
12635;SDS011;6383;50.830;7.210;2022-08-19T02:17:09;20.02;;;18.42;;
12635;SDS011;6383;50.830;7.210;2022-08-19T02:19:38;20.67;;;19.08;;
12635;SDS011;6383;50.830;7.210;2022-08-19T02:22:07;20.30;;;18.50;;
12635;SDS011;6383;50.830;7.210;2022-08-19T02:24:36;21.25;;;19.45;;
12635;SDS011;6383;50.830;7.210;2022-08-19T02:27:06;19.95;;;18.27;;
12635;SDS011;6383;50.830;7.210;2022-08-19T02:29:36;21.42;;;19.33;;
12635;SDS011;6383;50.830;7.210;2022-08-19T02:32:06;20.77;;;18.88;;
12635;SDS011;6383;50.830;7.210;2022-08-19T02:34:35;20.40;;;18.60;;
12635;SDS011;6383;50.830;7.210;2022-08-19T02:37:04;19.27;;;17.52;;
12635;SDS011;6383;50.830;7.210;2022-08-19T02:39:54;17.90;;;16.45;;
12635;SDS011;6383;50.830;7.210;2022-08-19T02:42:22;18.60;;;17.10;;
12635;SDS011;6383;50.830;7.210;2022-08-19T02:47:23;19.73;;;18.02;;
12635;SDS011;6383;50.830;7.210;2022-08-19T02:49:53;19.88;;;18.23;;
12635;SDS011;6383;50.830;7.210;2022-08-19T02:52:22;19.50;;;18.00;;
12635;SDS011;6383;50.830;7.210;2022-08-19T02:54:51;19.13;;;17.63;;
12635;SDS011;6383;50.830;7.210;2022-08-19T02:57:20;20.98;;;19.10;;
12635;SDS011;6383;50.830;7.210;2022-08-19T02:59:49;20.38;;;18.67;;
12635;SDS011;6383;50.830;7.210;2022-08-19T03:02:20;20.83;;;19.10;;
12635;SDS011;6383;50.830;7.210;2022-08-19T03:04:49;19.52;;;17.92;;
12635;SDS011;6383;50.830;7.210;2022-08-19T03:07:19;18.27;;;16.73;;
12635;SDS011;6383;50.830;7.210;2022-08-19T03:09:48;20.08;;;18.42;;
12635;SDS011;6383;50.830;7.210;2022-08-19T03:12:17;20.63;;;18.88;;
12635;SDS011;6383;50.830;7.210;2022-08-19T03:14:46;18.70;;;17.20;;
12635;SDS011;6383;50.830;7.210;2022-08-19T03:17:15;20.77;;;19.08;;
12635;SDS011;6383;50.830;7.210;2022-08-19T03:19:45;18.52;;;17.13;;
12635;SDS011;6383;50.830;7.210;2022-08-19T03:22:15;21.13;;;18.98;;
12635;SDS011;6383;50.830;7.210;2022-08-19T03:24:44;20.73;;;18.92;;
12635;SDS011;6383;50.830;7.210;2022-08-19T03:27:13;19.35;;;17.85;;
12635;SDS011;6383;50.830;7.210;2022-08-19T03:29:43;21.65;;;19.88;;
12635;SDS011;6383;50.830;7.210;2022-08-19T03:32:12;22.45;;;20.20;;
12635;SDS011;6383;50.830;7.210;2022-08-19T03:34:41;21.52;;;19.73;;
12635;SDS011;6383;50.830;7.210;2022-08-19T03:37:12;19.52;;;17.92;;
12635;SDS011;6383;50.830;7.210;2022-08-19T03:39:41;22.05;;;20.02;;
12635;SDS011;6383;50.830;7.210;2022-08-19T03:42:11;21.30;;;19.60;;
12635;SDS011;6383;50.830;7.210;2022-08-19T03:44:40;21.83;;;19.95;;
12635;SDS011;6383;50.830;7.210;2022-08-19T03:47:12;22.33;;;20.35;;
12635;SDS011;6383;50.830;7.210;2022-08-19T03:49:44;22.05;;;19.88;;
12635;SDS011;6383;50.830;7.210;2022-08-19T03:52:15;23.70;;;21.27;;
12635;SDS011;6383;50.830;7.210;2022-08-19T03:54:44;22.98;;;20.85;;
12635;SDS011;6383;50.830;7.210;2022-08-19T03:57:13;22.90;;;20.95;;
12635;SDS011;6383;50.830;7.210;2022-08-19T03:59:42;23.38;;;21.45;;
12635;SDS011;6383;50.830;7.210;2022-08-19T04:02:11;24.08;;;22.08;;
12635;SDS011;6383;50.830;7.210;2022-08-19T04:04:42;24.38;;;22.15;;
12635;SDS011;6383;50.830;7.210;2022-08-19T04:07:13;26.33;;;24.23;;
12635;SDS011;6383;50.830;7.210;2022-08-19T04:09:45;25.17;;;23.13;;
12635;SDS011;6383;50.830;7.210;2022-08-19T04:12:14;21.98;;;20.20;;
12635;SDS011;6383;50.830;7.210;2022-08-19T04:17:12;20.63;;;18.88;;
12635;SDS011;6383;50.830;7.210;2022-08-19T04:19:41;20.85;;;19.08;;
12635;SDS011;6383;50.830;7.210;2022-08-19T04:22:11;20.20;;;18.60;;
12635;SDS011;6383;50.830;7.210;2022-08-19T04:24:42;19.35;;;17.83;;
12635;SDS011;6383;50.830;7.210;2022-08-19T04:27:11;20.27;;;18.33;;
12635;SDS011;6383;50.830;7.210;2022-08-19T04:29:40;20.50;;;18.77;;
12635;SDS011;6383;50.830;7.210;2022-08-19T04:32:10;22.73;;;20.75;;
12635;SDS011;6383;50.830;7.210;2022-08-19T04:34:42;23.25;;;21.15;;
12635;SDS011;6383;50.830;7.210;2022-08-19T04:37:12;23.73;;;21.63;;
12635;SDS011;6383;50.830;7.210;2022-08-19T04:39:42;23.85;;;21.92;;
12635;SDS011;6383;50.830;7.210;2022-08-19T04:42:29;23.67;;;21.58;;
12635;SDS011;6383;50.830;7.210;2022-08-19T04:45:07;23.88;;;21.70;;
12635;SDS011;6383;50.830;7.210;2022-08-19T04:47:39;27.42;;;24.77;;
12635;SDS011;6383;50.830;7.210;2022-08-19T04:50:10;26.40;;;24.13;;
12635;SDS011;6383;50.830;7.210;2022-08-19T04:52:39;26.65;;;23.92;;
12635;SDS011;6383;50.830;7.210;2022-08-19T04:55:11;24.95;;;22.75;;
12635;SDS011;6383;50.830;7.210;2022-08-19T04:57:41;24.33;;;22.20;;
12635;SDS011;6383;50.830;7.210;2022-08-19T05:00:11;21.67;;;19.70;;
12635;SDS011;6383;50.830;7.210;2022-08-19T05:02:40;22.05;;;19.38;;
12635;SDS011;6383;50.830;7.210;2022-08-19T05:05:10;19.98;;;18.10;;
12635;SDS011;6383;50.830;7.210;2022-08-19T05:07:40;21.73;;;19.83;;
12635;SDS011;6383;50.830;7.210;2022-08-19T05:10:14;21.50;;;19.67;;
12635;SDS011;6383;50.830;7.210;2022-08-19T05:12:43;23.02;;;20.98;;
12635;SDS011;6383;50.830;7.210;2022-08-19T05:15:12;21.65;;;19.85;;
12635;SDS011;6383;50.830;7.210;2022-08-19T05:17:41;22.77;;;20.60;;
12635;SDS011;6383;50.830;7.210;2022-08-19T05:20:30;23.27;;;20.95;;
12635;SDS011;6383;50.830;7.210;2022-08-19T05:23:17;24.05;;;21.90;;
12635;SDS011;6383;50.830;7.210;2022-08-19T05:25:47;24.52;;;22.45;;
12635;SDS011;6383;50.830;7.210;2022-08-19T05:28:17;26.88;;;24.58;;
12635;SDS011;6383;50.830;7.210;2022-08-19T05:30:47;26.50;;;24.23;;
12635;SDS011;6383;50.830;7.210;2022-08-19T05:33:18;25.67;;;23.38;;
12635;SDS011;6383;50.830;7.210;2022-08-19T05:35:47;26.65;;;24.27;;
12635;SDS011;6383;50.830;7.210;2022-08-19T05:38:17;25.83;;;23.63;;
12635;SDS011;6383;50.830;7.210;2022-08-19T05:40:48;25.40;;;23.35;;
12635;SDS011;6383;50.830;7.210;2022-08-19T05:43:17;23.67;;;21.58;;
12635;SDS011;6383;50.830;7.210;2022-08-19T05:45:46;21.95;;;19.88;;
12635;SDS011;6383;50.830;7.210;2022-08-19T05:48:18;20.00;;;18.30;;
12635;SDS011;6383;50.830;7.210;2022-08-19T05:50:47;22.63;;;20.60;;
12635;SDS011;6383;50.830;7.210;2022-08-19T05:53:18;22.75;;;20.42;;
12635;SDS011;6383;50.830;7.210;2022-08-19T05:55:48;22.27;;;20.38;;
12635;SDS011;6383;50.830;7.210;2022-08-19T05:58:17;23.15;;;19.48;;
12635;SDS011;6383;50.830;7.210;2022-08-19T06:00:47;23.95;;;21.77;;
12635;SDS011;6383;50.830;7.210;2022-08-19T06:03:16;23.80;;;21.80;;
12635;SDS011;6383;50.830;7.210;2022-08-19T06:05:45;22.88;;;20.98;;
12635;SDS011;6383;50.830;7.210;2022-08-19T06:08:14;23.23;;;21.08;;
12635;SDS011;6383;50.830;7.210;2022-08-19T06:10:45;24.88;;;22.30;;
12635;SDS011;6383;50.830;7.210;2022-08-19T06:13:16;24.08;;;21.90;;
12635;SDS011;6383;50.830;7.210;2022-08-19T06:15:46;22.85;;;20.90;;
12635;SDS011;6383;50.830;7.210;2022-08-19T06:18:16;28.13;;;25.42;;
12635;SDS011;6383;50.830;7.210;2022-08-19T06:20:45;27.65;;;25.27;;
12635;SDS011;6383;50.830;7.210;2022-08-19T06:23:14;25.70;;;23.40;;
12635;SDS011;6383;50.830;7.210;2022-08-19T06:25:44;28.20;;;25.70;;
12635;SDS011;6383;50.830;7.210;2022-08-19T06:28:13;28.25;;;25.80;;
12635;SDS011;6383;50.830;7.210;2022-08-19T06:30:43;28.02;;;25.65;;
12635;SDS011;6383;50.830;7.210;2022-08-19T06:33:12;27.15;;;24.33;;
12635;SDS011;6383;50.830;7.210;2022-08-19T06:35:41;33.33;;;24.27;;
12635;SDS011;6383;50.830;7.210;2022-08-19T06:38:11;27.50;;;25.08;;
12635;SDS011;6383;50.830;7.210;2022-08-19T06:40:40;29.50;;;26.52;;
12635;SDS011;6383;50.830;7.210;2022-08-19T06:43:09;30.50;;;27.70;;
12635;SDS011;6383;50.830;7.210;2022-08-19T06:45:38;29.88;;;27.13;;
12635;SDS011;6383;50.830;7.210;2022-08-19T06:48:08;30.15;;;27.17;;
12635;SDS011;6383;50.830;7.210;2022-08-19T06:50:37;28.05;;;25.67;;
12635;SDS011;6383;50.830;7.210;2022-08-19T06:53:07;28.90;;;26.08;;
12635;SDS011;6383;50.830;7.210;2022-08-19T06:55:36;31.42;;;28.60;;
12635;SDS011;6383;50.830;7.210;2022-08-19T07:00:33;33.13;;;29.67;;
12635;SDS011;6383;50.830;7.210;2022-08-19T07:03:01;34.10;;;29.45;;
12635;SDS011;6383;50.830;7.210;2022-08-19T07:05:31;34.17;;;30.88;;
12635;SDS011;6383;50.830;7.210;2022-08-19T07:08:01;34.00;;;30.80;;
12635;SDS011;6383;50.830;7.210;2022-08-19T07:13:00;31.10;;;28.23;;
12635;SDS011;6383;50.830;7.210;2022-08-19T07:15:29;37.33;;;29.48;;
12635;SDS011;6383;50.830;7.210;2022-08-19T07:17:58;37.78;;;31.85;;
12635;SDS011;6383;50.830;7.210;2022-08-19T07:20:27;35.38;;;31.67;;
12635;SDS011;6383;50.830;7.210;2022-08-19T07:22:58;36.65;;;31.20;;
12635;SDS011;6383;50.830;7.210;2022-08-19T07:25:27;35.25;;;31.67;;
12635;SDS011;6383;50.830;7.210;2022-08-19T07:27:56;41.47;;;32.70;;
12635;SDS011;6383;50.830;7.210;2022-08-19T07:30:25;35.20;;;31.58;;
12635;SDS011;6383;50.830;7.210;2022-08-19T07:32:54;38.95;;;35.28;;
12635;SDS011;6383;50.830;7.210;2022-08-19T07:35:24;36.65;;;31.42;;
12635;SDS011;6383;50.830;7.210;2022-08-19T07:37:53;36.33;;;32.08;;
12635;SDS011;6383;50.830;7.210;2022-08-19T07:40:24;39.58;;;35.55;;
12635;SDS011;6383;50.830;7.210;2022-08-19T07:42:56;37.80;;;33.17;;
12635;SDS011;6383;50.830;7.210;2022-08-19T07:45:25;37.58;;;33.58;;
12635;SDS011;6383;50.830;7.210;2022-08-19T07:47:56;39.97;;;33.05;;
12635;SDS011;6383;50.830;7.210;2022-08-19T07:50:25;37.25;;;33.72;;
12635;SDS011;6383;50.830;7.210;2022-08-19T07:52:54;36.17;;;32.65;;
12635;SDS011;6383;50.830;7.210;2022-08-19T07:55:26;35.38;;;31.65;;
12635;SDS011;6383;50.830;7.210;2022-08-19T07:57:55;34.95;;;31.27;;
12635;SDS011;6383;50.830;7.210;2022-08-19T08:00:24;35.58;;;32.08;;
12635;SDS011;6383;50.830;7.210;2022-08-19T08:02:54;35.05;;;31.40;;
12635;SDS011;6383;50.830;7.210;2022-08-19T08:05:23;36.60;;;29.52;;
12635;SDS011;6383;50.830;7.210;2022-08-19T08:08:10;34.40;;;30.83;;
12635;SDS011;6383;50.830;7.210;2022-08-19T08:10:59;35.35;;;31.88;;
12635;SDS011;6383;50.830;7.210;2022-08-19T08:13:29;35.25;;;31.75;;
12635;SDS011;6383;50.830;7.210;2022-08-19T08:15:58;33.30;;;30.00;;
12635;SDS011;6383;50.830;7.210;2022-08-19T08:18:27;34.13;;;30.42;;
12635;SDS011;6383;50.830;7.210;2022-08-19T08:20:57;33.25;;;30.02;;
12635;SDS011;6383;50.830;7.210;2022-08-19T08:23:27;32.00;;;28.75;;
12635;SDS011;6383;50.830;7.210;2022-08-19T08:25:59;33.72;;;30.38;;
12635;SDS011;6383;50.830;7.210;2022-08-19T08:28:29;35.30;;;31.45;;
12635;SDS011;6383;50.830;7.210;2022-08-19T08:30:59;36.00;;;29.10;;
12635;SDS011;6383;50.830;7.210;2022-08-19T08:33:28;32.17;;;28.52;;
12635;SDS011;6383;50.830;7.210;2022-08-19T08:35:58;30.92;;;27.83;;
12635;SDS011;6383;50.830;7.210;2022-08-19T08:38:27;31.42;;;28.13;;
12635;SDS011;6383;50.830;7.210;2022-08-19T08:41:01;27.17;;;24.40;;
12635;SDS011;6383;50.830;7.210;2022-08-19T08:43:38;28.33;;;25.33;;
12635;SDS011;6383;50.830;7.210;2022-08-19T08:46:12;32.75;;;24.40;;
12635;SDS011;6383;50.830;7.210;2022-08-19T08:48:46;26.23;;;23.50;;
12635;SDS011;6383;50.830;7.210;2022-08-19T08:51:22;26.73;;;24.02;;
12635;SDS011;6383;50.830;7.210;2022-08-19T08:53:59;25.58;;;22.55;;
12635;SDS011;6383;50.830;7.210;2022-08-19T08:56:31;32.35;;;24.33;;
12635;SDS011;6383;50.830;7.210;2022-08-19T08:59:01;24.80;;;22.45;;
12635;SDS011;6383;50.830;7.210;2022-08-19T09:01:37;21.33;;;18.60;;
12635;SDS011;6383;50.830;7.210;2022-08-19T09:04:17;21.55;;;16.20;;
12635;SDS011;6383;50.830;7.210;2022-08-19T09:06:51;18.60;;;15.30;;
12635;SDS011;6383;50.830;7.210;2022-08-19T09:09:31;16.05;;;12.75;;
12635;SDS011;6383;50.830;7.210;2022-08-19T09:12:10;20.05;;;15.10;;
12635;SDS011;6383;50.830;7.210;2022-08-19T09:14:50;14.25;;;12.93;;
12635;SDS011;6383;50.830;7.210;2022-08-19T09:17:27;18.42;;;14.95;;
12635;SDS011;6383;50.830;7.210;2022-08-19T09:20:05;17.70;;;15.80;;
12635;SDS011;6383;50.830;7.210;2022-08-19T09:22:55;20.33;;;17.27;;
12635;SDS011;6383;50.830;7.210;2022-08-19T09:25:28;18.48;;;14.93;;
12635;SDS011;6383;50.830;7.210;2022-08-19T09:28:03;15.13;;;13.30;;
12635;SDS011;6383;50.830;7.210;2022-08-19T09:30:41;15.07;;;13.57;;
12635;SDS011;6383;50.830;7.210;2022-08-19T09:33:10;17.67;;;13.10;;
12635;SDS011;6383;50.830;7.210;2022-08-19T09:35:46;14.48;;;11.40;;
12635;SDS011;6383;50.830;7.210;2022-08-19T09:38:16;14.88;;;13.55;;
12635;SDS011;6383;50.830;7.210;2022-08-19T09:43:18;19.05;;;17.13;;
12635;SDS011;6383;50.830;7.210;2022-08-19T09:45:47;17.50;;;15.68;;
12635;SDS011;6383;50.830;7.210;2022-08-19T09:48:17;19.15;;;15.68;;
12635;SDS011;6383;50.830;7.210;2022-08-19T09:50:48;18.63;;;16.20;;
12635;SDS011;6383;50.830;7.210;2022-08-19T09:53:18;21.83;;;17.55;;
12635;SDS011;6383;50.830;7.210;2022-08-19T09:55:50;19.80;;;17.30;;
12635;SDS011;6383;50.830;7.210;2022-08-19T09:58:21;20.23;;;17.80;;
12635;SDS011;6383;50.830;7.210;2022-08-19T10:00:54;22.35;;;19.95;;
12635;SDS011;6383;50.830;7.210;2022-08-19T10:03:24;22.63;;;20.33;;
12635;SDS011;6383;50.830;7.210;2022-08-19T10:05:54;23.90;;;21.45;;
12635;SDS011;6383;50.830;7.210;2022-08-19T10:08:25;23.42;;;19.33;;
12635;SDS011;6383;50.830;7.210;2022-08-19T10:10:57;23.20;;;19.52;;
12635;SDS011;6383;50.830;7.210;2022-08-19T10:13:28;23.45;;;18.80;;
12635;SDS011;6383;50.830;7.210;2022-08-19T10:16:02;25.00;;;18.50;;
12635;SDS011;6383;50.830;7.210;2022-08-19T10:18:32;22.27;;;19.58;;
12635;SDS011;6383;50.830;7.210;2022-08-19T10:21:03;25.30;;;22.60;;
12635;SDS011;6383;50.830;7.210;2022-08-19T10:23:37;26.40;;;23.30;;
12635;SDS011;6383;50.830;7.210;2022-08-19T10:26:07;23.60;;;21.10;;
12635;SDS011;6383;50.830;7.210;2022-08-19T10:28:38;26.60;;;23.83;;
12635;SDS011;6383;50.830;7.210;2022-08-19T10:31:07;32.40;;;27.95;;
12635;SDS011;6383;50.830;7.210;2022-08-19T10:33:39;31.27;;;26.98;;
12635;SDS011;6383;50.830;7.210;2022-08-19T10:36:10;30.83;;;25.70;;
12635;SDS011;6383;50.830;7.210;2022-08-19T10:38:42;31.47;;;28.13;;
12635;SDS011;6383;50.830;7.210;2022-08-19T10:41:13;30.20;;;27.15;;
12635;SDS011;6383;50.830;7.210;2022-08-19T10:43:45;28.05;;;25.23;;
12635;SDS011;6383;50.830;7.210;2022-08-19T10:46:15;32.70;;;27.52;;
12635;SDS011;6383;50.830;7.210;2022-08-19T10:48:45;28.67;;;23.80;;
12635;SDS011;6383;50.830;7.210;2022-08-19T10:51:14;24.45;;;21.95;;
12635;SDS011;6383;50.830;7.210;2022-08-19T10:54:01;25.17;;;22.73;;
12635;SDS011;6383;50.830;7.210;2022-08-19T10:56:31;26.92;;;23.90;;
12635;SDS011;6383;50.830;7.210;2022-08-19T10:59:20;26.05;;;23.55;;
12635;SDS011;6383;50.830;7.210;2022-08-19T11:01:51;20.95;;;18.67;;
12635;SDS011;6383;50.830;7.210;2022-08-19T11:04:20;21.55;;;15.95;;
12635;SDS011;6383;50.830;7.210;2022-08-19T11:06:50;19.75;;;15.95;;
12635;SDS011;6383;50.830;7.210;2022-08-19T11:09:19;15.68;;;14.23;;
12635;SDS011;6383;50.830;7.210;2022-08-19T11:11:52;18.50;;;16.65;;
12635;SDS011;6383;50.830;7.210;2022-08-19T11:14:25;19.25;;;17.02;;
12635;SDS011;6383;50.830;7.210;2022-08-19T11:16:56;18.73;;;16.73;;
12635;SDS011;6383;50.830;7.210;2022-08-19T11:19:25;19.10;;;17.30;;
12635;SDS011;6383;50.830;7.210;2022-08-19T11:21:55;19.88;;;17.45;;
12635;SDS011;6383;50.830;7.210;2022-08-19T11:24:25;16.63;;;14.98;;
12635;SDS011;6383;50.830;7.210;2022-08-19T11:26:55;20.55;;;18.10;;
12635;SDS011;6383;50.830;7.210;2022-08-19T11:29:33;16.45;;;14.50;;
12635;SDS011;6383;50.830;7.210;2022-08-19T11:32:03;14.95;;;13.43;;
12635;SDS011;6383;50.830;7.210;2022-08-19T11:34:32;18.85;;;13.57;;
12635;SDS011;6383;50.830;7.210;2022-08-19T11:37:02;13.80;;;12.20;;
12635;SDS011;6383;50.830;7.210;2022-08-19T11:39:32;15.32;;;12.57;;
12635;SDS011;6383;50.830;7.210;2022-08-19T11:42:02;14.95;;;12.05;;
12635;SDS011;6383;50.830;7.210;2022-08-19T11:44:54;14.43;;;12.90;;
12635;SDS011;6383;50.830;7.210;2022-08-19T11:47:24;12.23;;;11.07;;
12635;SDS011;6383;50.830;7.210;2022-08-19T11:49:53;11.85;;;10.55;;
12635;SDS011;6383;50.830;7.210;2022-08-19T11:52:22;12.13;;;10.80;;
12635;SDS011;6383;50.830;7.210;2022-08-19T11:54:52;11.63;;;10.63;;
12635;SDS011;6383;50.830;7.210;2022-08-19T11:57:21;10.63;;;9.50;;
12635;SDS011;6383;50.830;7.210;2022-08-19T11:59:51;16.17;;;10.00;;
12635;SDS011;6383;50.830;7.210;2022-08-19T12:02:22;13.68;;;10.10;;
12635;SDS011;6383;50.830;7.210;2022-08-19T12:04:51;14.60;;;13.10;;
12635;SDS011;6383;50.830;7.210;2022-08-19T12:07:21;18.98;;;13.68;;
12635;SDS011;6383;50.830;7.210;2022-08-19T12:09:50;13.38;;;11.93;;
12635;SDS011;6383;50.830;7.210;2022-08-19T12:12:19;15.35;;;12.88;;
12635;SDS011;6383;50.830;7.210;2022-08-19T12:14:48;12.43;;;11.35;;
12635;SDS011;6383;50.830;7.210;2022-08-19T12:17:26;14.30;;;12.73;;
12635;SDS011;6383;50.830;7.210;2022-08-19T12:19:55;17.60;;;12.88;;
12635;SDS011;6383;50.830;7.210;2022-08-19T12:22:24;12.05;;;10.98;;
12635;SDS011;6383;50.830;7.210;2022-08-19T12:24:53;11.50;;;9.80;;
12635;SDS011;6383;50.830;7.210;2022-08-19T12:27:23;10.68;;;9.60;;
12635;SDS011;6383;50.830;7.210;2022-08-19T12:29:52;9.30;;;8.07;;
12635;SDS011;6383;50.830;7.210;2022-08-19T12:32:21;7.85;;;7.20;;
12635;SDS011;6383;50.830;7.210;2022-08-19T12:34:51;12.00;;;6.93;;
12635;SDS011;6383;50.830;7.210;2022-08-19T12:37:21;10.63;;;7.85;;
12635;SDS011;6383;50.830;7.210;2022-08-19T12:39:50;10.18;;;8.05;;
12635;SDS011;6383;50.830;7.210;2022-08-19T12:42:20;12.00;;;7.28;;
12635;SDS011;6383;50.830;7.210;2022-08-19T12:44:50;14.23;;;9.07;;
12635;SDS011;6383;50.830;7.210;2022-08-19T12:47:20;8.15;;;7.35;;
12635;SDS011;6383;50.830;7.210;2022-08-19T12:49:49;7.20;;;6.47;;
12635;SDS011;6383;50.830;7.210;2022-08-19T12:52:20;8.30;;;7.15;;
12635;SDS011;6383;50.830;7.210;2022-08-19T12:54:49;7.22;;;6.50;;
12635;SDS011;6383;50.830;7.210;2022-08-19T12:57:19;8.60;;;7.47;;
12635;SDS011;6383;50.830;7.210;2022-08-19T12:59:51;7.55;;;6.40;;
12635;SDS011;6383;50.830;7.210;2022-08-19T13:02:21;9.07;;;7.00;;
12635;SDS011;6383;50.830;7.210;2022-08-19T13:04:50;12.90;;;7.70;;
12635;SDS011;6383;50.830;7.210;2022-08-19T13:07:21;8.23;;;7.38;;
12635;SDS011;6383;50.830;7.210;2022-08-19T13:09:50;16.80;;;9.20;;
12635;SDS011;6383;50.830;7.210;2022-08-19T13:12:20;7.38;;;6.75;;
12635;SDS011;6383;50.830;7.210;2022-08-19T13:14:51;8.95;;;6.97;;
12635;SDS011;6383;50.830;7.210;2022-08-19T13:17:21;10.98;;;7.03;;
12635;SDS011;6383;50.830;7.210;2022-08-19T13:19:50;8.98;;;7.47;;
12635;SDS011;6383;50.830;7.210;2022-08-19T13:22:21;11.40;;;7.40;;
12635;SDS011;6383;50.830;7.210;2022-08-19T13:24:51;8.88;;;5.25;;
12635;SDS011;6383;50.830;7.210;2022-08-19T13:27:20;10.82;;;7.45;;
12635;SDS011;6383;50.830;7.210;2022-08-19T13:29:49;10.38;;;7.57;;
12635;SDS011;6383;50.830;7.210;2022-08-19T13:32:34;9.60;;;7.45;;
12635;SDS011;6383;50.830;7.210;2022-08-19T13:35:21;7.00;;;6.13;;
12635;SDS011;6383;50.830;7.210;2022-08-19T13:37:51;6.10;;;5.65;;
12635;SDS011;6383;50.830;7.210;2022-08-19T13:40:22;5.00;;;4.70;;
12635;SDS011;6383;50.830;7.210;2022-08-19T13:42:54;7.05;;;5.18;;
12635;SDS011;6383;50.830;7.210;2022-08-19T13:45:24;9.63;;;5.95;;
12635;SDS011;6383;50.830;7.210;2022-08-19T13:47:55;6.38;;;5.25;;
12635;SDS011;6383;50.830;7.210;2022-08-19T13:50:26;5.53;;;5.03;;
12635;SDS011;6383;50.830;7.210;2022-08-19T13:53:00;7.97;;;4.82;;
12635;SDS011;6383;50.830;7.210;2022-08-19T13:55:30;6.80;;;6.13;;
12635;SDS011;6383;50.830;7.210;2022-08-19T13:57:59;6.40;;;5.80;;
12635;SDS011;6383;50.830;7.210;2022-08-19T14:00:31;7.85;;;7.10;;
12635;SDS011;6383;50.830;7.210;2022-08-19T14:03:02;9.05;;;7.30;;
12635;SDS011;6383;50.830;7.210;2022-08-19T14:05:32;7.95;;;7.15;;
12635;SDS011;6383;50.830;7.210;2022-08-19T14:08:03;6.90;;;6.28;;
12635;SDS011;6383;50.830;7.210;2022-08-19T14:10:33;13.80;;;7.63;;
12635;SDS011;6383;50.830;7.210;2022-08-19T14:13:03;8.93;;;7.45;;
12635;SDS011;6383;50.830;7.210;2022-08-19T14:15:32;12.57;;;7.93;;
12635;SDS011;6383;50.830;7.210;2022-08-19T14:18:01;10.90;;;7.10;;
12635;SDS011;6383;50.830;7.210;2022-08-19T14:20:31;12.23;;;7.22;;
12635;SDS011;6383;50.830;7.210;2022-08-19T14:23:07;8.88;;;6.25;;
12635;SDS011;6383;50.830;7.210;2022-08-19T14:25:35;8.07;;;7.15;;
12635;SDS011;6383;50.830;7.210;2022-08-19T14:28:03;7.25;;;6.45;;
12635;SDS011;6383;50.830;7.210;2022-08-19T14:30:33;10.13;;;5.97;;
12635;SDS011;6383;50.830;7.210;2022-08-19T14:33:03;7.65;;;6.68;;
12635;SDS011;6383;50.830;7.210;2022-08-19T14:35:33;7.45;;;6.53;;
12635;SDS011;6383;50.830;7.210;2022-08-19T14:38:03;6.85;;;6.07;;
12635;SDS011;6383;50.830;7.210;2022-08-19T14:40:34;11.50;;;7.63;;
12635;SDS011;6383;50.830;7.210;2022-08-19T14:43:03;7.57;;;6.70;;
12635;SDS011;6383;50.830;7.210;2022-08-19T14:45:34;6.47;;;5.88;;
12635;SDS011;6383;50.830;7.210;2022-08-19T14:48:06;6.72;;;6.05;;
12635;SDS011;6383;50.830;7.210;2022-08-19T14:50:35;9.20;;;6.20;;
12635;SDS011;6383;50.830;7.210;2022-08-19T14:53:04;9.25;;;6.45;;
12635;SDS011;6383;50.830;7.210;2022-08-19T14:55:36;7.63;;;6.63;;
12635;SDS011;6383;50.830;7.210;2022-08-19T14:58:10;12.95;;;6.43;;
12635;SDS011;6383;50.830;7.210;2022-08-19T15:00:39;9.55;;;7.45;;
12635;SDS011;6383;50.830;7.210;2022-08-19T15:03:09;8.27;;;7.55;;
12635;SDS011;6383;50.830;7.210;2022-08-19T15:05:39;8.75;;;7.18;;
12635;SDS011;6383;50.830;7.210;2022-08-19T15:08:08;12.18;;;7.05;;
12635;SDS011;6383;50.830;7.210;2022-08-19T15:10:39;9.85;;;6.28;;
12635;SDS011;6383;50.830;7.210;2022-08-19T15:13:08;8.90;;;6.75;;
12635;SDS011;6383;50.830;7.210;2022-08-19T15:15:37;8.30;;;6.75;;